Time;durP1;ratioP1;P1;durP2;ratioP2;P2;SDS_P1;SDS_P2;PMS_P1;PMS_P2;Temp;Humidity;BMP_temperature;BMP_pressure;BME280_temperature;BME280_humidity;BME280_pressure;Samples;Min_cycle;Max_cycle;Signal;HPM_P1;HPM_P2
2023/06/30 00:00:00;;;;;;;14.70;4.60;;;13.20;99.90;;;;;;5071956;28;20413;-51
2023/06/30 00:02:26;;;;;;;18.02;4.18;;;13.20;99.90;;;;;;5072943;28;20512;-50
2023/06/30 00:04:51;;;;;;;14.93;4.55;;;13.30;99.90;;;;;;5071493;28;20048;-52
2023/06/30 00:07:21;;;;;;;14.68;4.32;;;13.20;99.90;;;;;;5073053;28;20043;-48
2023/06/30 00:09:50;;;;;;;10.63;4.80;;;13.20;99.90;;;;;;5071649;28;20078;-51
2023/06/30 00:12:16;;;;;;;12.93;4.35;;;13.30;99.90;;;;;;5072958;28;20514;-51
2023/06/30 00:14:41;;;;;;;9.82;4.10;;;13.20;99.90;;;;;;5072392;28;20409;-53
2023/06/30 00:17:07;;;;;;;12.18;4.93;;;13.00;99.90;;;;;;5071581;28;20062;-50
2023/06/30 00:19:33;;;;;;;11.27;4.15;;;13.00;99.90;;;;;;5070622;28;20497;-51
2023/06/30 00:21:59;;;;;;;12.05;4.43;;;12.80;99.90;;;;;;5053319;28;20543;-53
2023/06/30 00:24:25;;;;;;;12.98;4.82;;;12.80;99.90;;;;;;5071724;28;20674;-47
2023/06/30 00:26:50;;;;;;;11.50;4.05;;;12.70;99.90;;;;;;5071301;28;20130;-52
2023/06/30 00:29:16;;;;;;;12.68;4.53;;;12.60;99.90;;;;;;5071709;28;20032;-48
2023/06/30 00:31:42;;;;;;;8.10;4.22;;;12.40;99.90;;;;;;5052804;28;20539;-53
2023/06/30 00:34:07;;;;;;;18.52;5.25;;;12.70;99.90;;;;;;5070505;28;20519;-49
2023/06/30 00:36:33;;;;;;;14.27;5.28;;;12.70;99.90;;;;;;5071025;28;20298;-52
2023/06/30 00:38:59;;;;;;;14.13;5.65;;;12.70;99.90;;;;;;5072860;28;20051;-51
2023/06/30 00:41:25;;;;;;;11.80;4.30;;;12.70;99.90;;;;;;5071720;28;20371;-53
2023/06/30 00:43:50;;;;;;;13.23;4.15;;;12.90;99.90;;;;;;5071652;28;20239;-48
2023/06/30 00:46:17;;;;;;;13.43;4.88;;;12.70;99.90;;;;;;5071062;28;20040;-51
2023/06/30 00:48:44;;;;;;;9.30;3.67;;;12.70;99.90;;;;;;5070311;28;20032;-53
2023/06/30 00:51:11;;;;;;;18.70;5.03;;;12.80;99.90;;;;;;5070365;28;20077;-52
2023/06/30 00:53:37;;;;;;;14.27;3.72;;;12.80;99.90;;;;;;5071508;28;20040;-51
2023/06/30 00:56:04;;;;;;;10.88;3.38;;;13.00;99.90;;;;;;5050533;28;20064;-50
2023/06/30 00:58:29;;;;;;;14.15;3.53;;;12.90;99.90;;;;;;5051503;28;20139;-49
2023/06/30 01:01:03;;;;;;;9.18;3.33;;;13.00;99.90;;;;;;5051608;28;20896;-51
2023/06/30 01:03:55;;;;;;;14.48;3.47;;;12.90;99.90;;;;;;5050863;28;20485;-53
2023/06/30 01:06:27;;;;;;;11.30;3.40;;;12.80;99.90;;;;;;5051939;28;20082;-50
2023/06/30 01:09:04;;;;;;;12.77;3.25;;;12.70;99.90;;;;;;5052900;28;20037;-53
2023/06/30 01:11:32;;;;;;;10.23;3.38;;;12.90;99.90;;;;;;5052097;28;20152;-51
2023/06/30 01:13:59;;;;;;;10.70;3.30;;;12.80;99.90;;;;;;5050544;28;20417;-52
2023/06/30 01:16:26;;;;;;;13.75;3.45;;;12.70;99.90;;;;;;5051401;28;20052;-49
2023/06/30 01:18:55;;;;;;;14.30;3.70;;;12.70;99.90;;;;;;5049977;28;20040;-49
2023/06/30 01:21:22;;;;;;;10.45;3.13;;;12.60;99.90;;;;;;5047077;28;20052;-48
2023/06/30 01:23:58;;;;;;;12.90;3.50;;;12.60;99.90;;;;;;5051654;28;20063;-48
2023/06/30 01:26:24;;;;;;;12.63;2.90;;;12.50;99.90;;;;;;5050465;28;20086;-49
2023/06/30 01:28:52;;;;;;;10.70;3.22;;;12.70;99.90;;;;;;5051393;28;20041;-48
2023/06/30 01:31:19;;;;;;;10.82;3.47;;;12.60;99.90;;;;;;5050354;28;20175;-51
2023/06/30 01:33:45;;;;;;;11.00;2.95;;;12.50;99.90;;;;;;5054249;28;20511;-49
2023/06/30 01:36:11;;;;;;;11.30;3.53;;;12.70;99.90;;;;;;5053478;28;23751;-53
2023/06/30 01:38:36;;;;;;;9.77;2.92;;;12.50;99.90;;;;;;5056475;28;20075;-49
2023/06/30 01:41:04;;;;;;;10.88;3.35;;;12.60;99.90;;;;;;5054272;28;20044;-50
2023/06/30 01:43:31;;;;;;;13.10;3.42;;;12.50;99.90;;;;;;5053420;28;20040;-49
2023/06/30 01:45:57;;;;;;;13.77;3.42;;;12.80;99.90;;;;;;5055380;28;20070;-49
2023/06/30 01:48:23;;;;;;;9.18;2.88;;;12.60;99.90;;;;;;5053749;28;20406;-48
2023/06/30 01:50:50;;;;;;;12.82;3.20;;;12.60;99.90;;;;;;5053389;28;20055;-51
2023/06/30 01:53:15;;;;;;;10.90;3.03;;;12.50;99.90;;;;;;5053358;28;21606;-51
2023/06/30 01:55:47;;;;;;;8.32;3.22;;;12.60;99.90;;;;;;5063471;28;20500;-49
2023/06/30 01:58:13;;;;;;;12.27;4.03;;;12.60;99.90;;;;;;5074639;28;20044;-48
2023/06/30 02:00:39;;;;;;;8.38;3.50;;;12.50;99.90;;;;;;5073714;28;20464;-47
2023/06/30 02:03:05;;;;;;;12.88;3.70;;;12.50;99.90;;;;;;5073729;28;20357;-49
2023/06/30 02:05:30;;;;;;;13.02;3.72;;;12.40;99.90;;;;;;5073705;28;20066;-47
2023/06/30 02:07:56;;;;;;;11.65;3.30;;;12.20;99.90;;;;;;5076650;28;21029;-48
2023/06/30 02:10:22;;;;;;;12.32;4.03;;;12.10;99.90;;;;;;5075255;28;20048;-49
2023/06/30 02:12:47;;;;;;;10.65;3.30;;;12.20;99.90;;;;;;5074131;28;20094;-48
2023/06/30 02:15:13;;;;;;;11.30;3.58;;;12.30;99.90;;;;;;5074887;28;20818;-48
2023/06/30 02:17:40;;;;;;;12.15;3.13;;;12.30;99.90;;;;;;5074788;28;20039;-47
2023/06/30 02:20:06;;;;;;;11.98;3.72;;;12.10;99.90;;;;;;5073131;28;20048;-49
2023/06/30 02:22:33;;;;;;;8.77;2.75;;;12.20;99.90;;;;;;5074873;28;20052;-48
2023/06/30 02:24:59;;;;;;;14.30;3.45;;;12.00;99.90;;;;;;5056111;28;20043;-52
2023/06/30 02:27:26;;;;;;;8.95;3.65;;;12.00;99.90;;;;;;5074161;28;20756;-49
2023/06/30 02:29:53;;;;;;;10.95;3.50;;;12.00;99.90;;;;;;5056088;28;20073;-48
2023/06/30 02:32:19;;;;;;;10.63;3.30;;;12.10;99.90;;;;;;5073936;28;20047;-48
2023/06/30 02:34:45;;;;;;;12.38;3.22;;;12.10;99.90;;;;;;5074415;28;20036;-50
2023/06/30 02:37:11;;;;;;;13.73;4.85;;;12.10;99.90;;;;;;5073571;28;20055;-49
2023/06/30 02:39:36;;;;;;;15.05;3.75;;;12.20;99.90;;;;;;5074963;28;20072;-49
2023/06/30 02:42:02;;;;;;;16.42;3.95;;;12.10;99.90;;;;;;5074265;28;20115;-47
2023/06/30 02:44:28;;;;;;;11.43;3.70;;;12.00;99.90;;;;;;5072541;28;20143;-51
2023/06/30 02:46:54;;;;;;;12.02;3.90;;;11.90;99.90;;;;;;5073215;28;20036;-48
2023/06/30 02:49:20;;;;;;;11.93;3.75;;;11.80;99.90;;;;;;5071842;28;20443;-48
2023/06/30 02:51:45;;;;;;;16.83;4.50;;;12.00;99.90;;;;;;5074210;28;20048;-49
2023/06/30 02:54:11;;;;;;;12.25;3.42;;;12.20;99.90;;;;;;5072929;28;20036;-49
2023/06/30 02:56:37;;;;;;;18.42;4.05;;;12.00;99.90;;;;;;5073429;28;20056;-50
2023/06/30 02:59:02;;;;;;;17.02;3.88;;;11.90;99.90;;;;;;5073779;28;20523;-49
2023/06/30 03:01:28;;;;;;;10.88;3.45;;;12.00;99.90;;;;;;5073195;28;20039;-48
2023/06/30 03:03:54;;;;;;;10.95;3.55;;;11.80;99.90;;;;;;5072728;28;20040;-48
2023/06/30 03:06:20;;;;;;;10.68;4.18;;;11.70;99.90;;;;;;5054979;28;20047;-52
2023/06/30 03:08:46;;;;;;;8.70;3.25;;;11.60;99.90;;;;;;5074619;28;20496;-52
2023/06/30 03:11:12;;;;;;;10.40;3.38;;;13.00;99.90;;;;;;5073489;28;20067;-53
2023/06/30 03:13:38;;;;;;;11.68;4.13;;;11.50;99.90;;;;;;5073088;28;20500;-52
2023/06/30 03:16:05;;;;;;;14.20;4.20;;;11.50;99.90;;;;;;5073435;28;20047;-52
2023/06/30 03:18:31;;;;;;;9.10;3.38;;;11.50;99.90;;;;;;5072315;28;20044;-51
2023/06/30 03:20:57;;;;;;;7.13;3.22;;;11.50;99.90;;;;;;5054446;28;20052;-52
2023/06/30 03:23:22;;;;;;;8.43;3.65;;;11.40;99.90;;;;;;5073657;28;20131;-50
2023/06/30 03:25:48;;;;;;;14.63;3.80;;;11.40;99.90;;;;;;5073239;28;20912;-51
2023/06/30 03:28:14;;;;;;;10.90;3.75;;;11.40;99.90;;;;;;5072330;28;20093;-51
2023/06/30 03:30:39;;;;;;;11.52;4.07;;;11.30;99.90;;;;;;5074140;28;20040;-52
2023/06/30 03:33:05;;;;;;;12.02;4.03;;;11.20;99.90;;;;;;5036681;28;20047;-53
2023/06/30 03:35:31;;;;;;;10.95;4.07;;;11.30;99.90;;;;;;5072739;28;20044;-51
2023/06/30 03:37:56;;;;;;;11.35;3.67;;;11.20;99.90;;;;;;5037613;28;20111;-50
2023/06/30 03:40:22;;;;;;;12.07;4.10;;;11.20;99.90;;;;;;5056286;28;20055;-51
2023/06/30 03:42:48;;;;;;;13.40;3.97;;;11.40;99.90;;;;;;5054461;28;20055;-53
2023/06/30 03:45:14;;;;;;;11.55;4.35;;;11.20;99.90;;;;;;5072417;28;20043;-52
2023/06/30 03:47:39;;;;;;;11.60;4.35;;;11.40;99.90;;;;;;5073475;28;20051;-51
2023/06/30 03:50:06;;;;;;;17.02;4.60;;;11.40;99.90;;;;;;5071216;28;20059;-49
2023/06/30 03:52:32;;;;;;;13.27;4.50;;;11.50;99.90;;;;;;5052646;28;20043;-49
2023/06/30 03:54:57;;;;;;;14.23;4.25;;;11.50;99.90;;;;;;5070606;28;20051;-48
2023/06/30 03:57:23;;;;;;;11.20;4.10;;;11.40;99.90;;;;;;5071895;28;20162;-49
2023/06/30 03:59:49;;;;;;;9.63;3.72;;;11.50;99.90;;;;;;5037154;28;20457;-50
2023/06/30 04:02:15;;;;;;;12.65;4.47;;;11.80;99.90;;;;;;5071848;28;20044;-47
2023/06/30 04:04:40;;;;;;;20.27;4.80;;;11.60;99.90;;;;;;5072515;28;20508;-51
2023/06/30 04:07:06;;;;;;;8.75;3.88;;;11.90;99.90;;;;;;5071586;28;20482;-46
2023/06/30 04:09:32;;;;;;;9.85;4.15;;;11.80;99.90;;;;;;5073000;28;20477;-48
2023/06/30 04:11:57;;;;;;;11.93;4.30;;;12.00;99.90;;;;;;5072032;28;20036;-47
2023/06/30 04:14:23;;;;;;;9.75;4.07;;;11.80;99.90;;;;;;5071154;28;20366;-49
2023/06/30 04:16:49;;;;;;;9.13;3.95;;;11.90;99.90;;;;;;5069845;28;20104;-48
2023/06/30 04:19:15;;;;;;;11.85;4.03;;;11.90;99.90;;;;;;5069453;28;20060;-48
2023/06/30 04:21:40;;;;;;;13.48;3.92;;;12.00;99.90;;;;;;5072022;28;20123;-47
2023/06/30 04:24:06;;;;;;;16.92;4.22;;;12.00;99.90;;;;;;5071703;28;20051;-46
2023/06/30 04:26:32;;;;;;;11.27;3.90;;;12.20;99.90;;;;;;5071233;28;20525;-50
2023/06/30 04:28:58;;;;;;;9.73;3.55;;;12.20;99.90;;;;;;5072291;28;20032;-47
2023/06/30 04:31:26;;;;;;;11.75;3.85;;;12.20;99.90;;;;;;5072063;28;20028;-50
2023/06/30 04:33:52;;;;;;;11.65;3.80;;;12.30;99.90;;;;;;5053319;28;20150;-49
2023/06/30 04:36:20;;;;;;;11.68;3.92;;;12.30;99.90;;;;;;5071502;28;21260;-47
2023/06/30 04:38:48;;;;;;;13.15;3.47;;;12.60;99.90;;;;;;5072895;28;20462;-47
2023/06/30 04:41:18;;;;;;;8.07;3.47;;;12.70;99.90;;;;;;5073524;28;20127;-47
2023/06/30 04:43:43;;;;;;;11.00;3.55;;;12.80;99.90;;;;;;5072354;28;20040;-50
2023/06/30 04:46:10;;;;;;;7.85;3.30;;;13.00;99.90;;;;;;5072069;28;20173;-49
2023/06/30 04:48:35;;;;;;;13.50;3.45;;;12.90;99.90;;;;;;5071450;28;20044;-49
2023/06/30 04:51:01;;;;;;;14.40;3.50;;;13.10;99.90;;;;;;5071573;28;20066;-48
2023/06/30 04:53:27;;;;;;;15.70;5.10;;;13.10;99.90;;;;;;5071030;28;20425;-49
2023/06/30 04:55:53;;;;;;;9.90;3.00;;;13.10;99.90;;;;;;5071015;28;20044;-52
2023/06/30 04:58:18;;;;;;;11.18;3.63;;;13.10;99.90;;;;;;5070356;28;23122;-51
2023/06/30 05:00:44;;;;;;;8.43;3.72;;;13.40;99.90;;;;;;5071205;28;20426;-48
2023/06/30 05:03:10;;;;;;;11.05;3.20;;;13.50;99.90;;;;;;5052239;28;20104;-47
2023/06/30 05:05:36;;;;;;;13.02;3.30;;;13.70;99.90;;;;;;5071304;28;20051;-47
2023/06/30 05:08:02;;;;;;;11.00;3.33;;;13.70;99.90;;;;;;5075345;28;20094;-48
2023/06/30 05:10:28;;;;;;;7.20;2.42;;;14.00;99.90;;;;;;5076176;28;20099;-49
2023/06/30 05:12:54;;;;;;;9.57;2.78;;;13.90;99.90;;;;;;5074588;28;20072;-48
2023/06/30 05:15:19;;;;;;;7.95;3.10;;;14.20;99.90;;;;;;5040229;28;20044;-50
2023/06/30 05:17:45;;;;;;;9.05;2.53;;;14.40;99.90;;;;;;5076117;28;20036;-50
2023/06/30 05:20:11;;;;;;;7.28;3.33;;;14.30;99.90;;;;;;5074270;28;20497;-47
2023/06/30 05:22:37;;;;;;;11.48;2.58;;;14.40;99.90;;;;;;5039795;28;21166;-49
2023/06/30 05:25:03;;;;;;;8.38;2.97;;;14.50;99.90;;;;;;5074904;28;20113;-47
2023/06/30 05:27:29;;;;;;;6.82;2.15;;;14.60;99.90;;;;;;5074282;28;20076;-49
2023/06/30 05:29:54;;;;;;;8.35;2.28;;;14.70;99.90;;;;;;5074520;28;20155;-49
2023/06/30 05:32:20;;;;;;;7.45;2.80;;;14.60;99.90;;;;;;5074924;28;20070;-48
2023/06/30 05:34:48;;;;;;;12.32;2.72;;;14.70;99.90;;;;;;5055137;28;20040;-47
2023/06/30 05:37:14;;;;;;;8.73;2.28;;;15.20;99.90;;;;;;5073895;28;20493;-49
2023/06/30 05:39:40;;;;;;;12.98;3.03;;;14.90;99.90;;;;;;5075952;28;20059;-47
2023/06/30 05:42:06;;;;;;;7.22;2.50;;;15.00;99.90;;;;;;5074216;28;20127;-50
2023/06/30 05:44:31;;;;;;;9.05;2.53;;;15.20;99.90;;;;;;5054017;28;20055;-51
2023/06/30 05:46:57;;;;;;;8.55;2.38;;;15.20;99.90;;;;;;5073236;28;20150;-49
2023/06/30 05:49:24;;;;;;;7.28;2.22;;;15.20;99.90;;;;;;5073922;28;20040;-47
2023/06/30 05:51:50;;;;;;;10.65;2.47;;;15.10;99.90;;;;;;5055596;28;20476;-46
2023/06/30 05:54:16;;;;;;;12.43;2.63;;;15.30;99.90;;;;;;5073553;28;20380;-48
2023/06/30 05:56:41;;;;;;;7.60;2.15;;;15.40;99.90;;;;;;5074434;28;20044;-47
2023/06/30 05:59:10;;;;;;;9.55;2.28;;;15.40;99.90;;;;;;5073444;28;20092;-48
2023/06/30 06:01:38;;;;;;;7.60;1.85;;;15.50;99.90;;;;;;5055342;28;20390;-51
2023/06/30 06:04:10;;;;;;;9.80;2.35;;;15.50;99.90;;;;;;5053766;28;20330;-48
2023/06/30 06:06:36;;;;;;;8.23;2.08;;;15.80;99.90;;;;;;5074198;28;20496;-47
2023/06/30 06:09:02;;;;;;;11.23;1.70;;;15.90;99.90;;;;;;5075289;28;20303;-48
2023/06/30 06:11:29;;;;;;;8.50;1.80;;;16.00;99.90;;;;;;5056957;28;20040;-48
2023/06/30 06:13:54;;;;;;;6.47;1.77;;;16.10;99.90;;;;;;5072027;28;20097;-49
2023/06/30 06:16:20;;;;;;;4.65;1.48;;;16.30;99.90;;;;;;5073672;28;20083;-46
2023/06/30 06:18:47;;;;;;;7.18;1.90;;;16.30;99.90;;;;;;5073206;28;20373;-51
2023/06/30 06:21:13;;;;;;;7.32;1.40;;;16.40;99.90;;;;;;5074121;28;20059;-47
2023/06/30 06:23:39;;;;;;;6.93;2.08;;;16.70;99.90;;;;;;5073431;28;20040;-46
2023/06/30 06:26:04;;;;;;;6.85;2.08;;;17.00;99.90;;;;;;5073442;28;20048;-47
2023/06/30 06:28:30;;;;;;;11.40;1.80;;;17.10;99.90;;;;;;5074866;28;20105;-48
2023/06/30 06:30:56;;;;;;;5.85;1.73;;;17.30;99.90;;;;;;5074408;28;20115;-48
2023/06/30 06:33:22;;;;;;;7.28;1.73;;;19.60;99.90;;;;;;5073970;28;20055;-48
2023/06/30 06:35:51;;;;;;;7.15;1.63;;;17.40;99.90;;;;;;5074711;28;20804;-47
2023/06/30 06:38:17;;;;;;;6.45;1.30;;;17.60;99.90;;;;;;5054937;28;20134;-47
2023/06/30 06:40:47;;;;;;;7.53;1.80;;;17.60;99.90;;;;;;5075594;28;20032;-47
2023/06/30 06:43:13;;;;;;;13.80;2.42;;;17.90;99.90;;;;;;5074642;28;20036;-47
2023/06/30 06:45:41;;;;;;;5.53;1.33;;;17.80;99.90;;;;;;5073069;28;20048;-48
2023/06/30 06:48:25;;;;;;;6.53;1.30;;;17.90;99.90;;;;;;5072621;28;20044;-47
2023/06/30 06:50:55;;;;;;;7.63;1.42;;;18.10;99.90;;;;;;5073272;28;20042;-49
2023/06/30 06:53:27;;;;;;;6.97;1.50;;;17.90;99.90;;;;;;5072392;28;20397;-50
2023/06/30 06:55:54;;;;;;;8.45;1.60;;;18.10;99.90;;;;;;5053674;28;20481;-48
2023/06/30 06:58:21;;;;;;;9.40;1.42;;;18.10;99.90;;;;;;5074211;28;20127;-51
2023/06/30 07:00:48;;;;;;;6.97;1.52;;;18.40;99.90;;;;;;5073297;28;20039;-48
2023/06/30 07:03:14;;;;;;;8.68;1.38;;;18.40;99.90;;;;;;5071858;28;20147;-49
2023/06/30 07:05:40;;;;;;;6.78;1.33;;;18.50;99.90;;;;;;5073156;28;20046;-48
2023/06/30 07:08:07;;;;;;;9.77;2.03;;;18.60;99.90;;;;;;5073088;28;20227;-47
2023/06/30 07:10:33;;;;;;;5.05;1.38;;;18.60;99.90;;;;;;5054984;28;20396;-48
2023/06/30 07:13:00;;;;;;;8.45;1.67;;;18.40;99.90;;;;;;5073124;28;20032;-48
2023/06/30 07:15:25;;;;;;;6.68;1.20;;;18.10;99.90;;;;;;5073868;28;20622;-47
2023/06/30 07:17:51;;;;;;;6.03;1.35;;;18.10;99.90;;;;;;5072271;28;20040;-47
2023/06/30 07:20:17;;;;;;;8.35;1.45;;;18.20;99.90;;;;;;5053619;28;20967;-48
2023/06/30 07:22:43;;;;;;;5.00;1.35;;;18.80;99.90;;;;;;5054480;28;20066;-49
2023/06/30 07:25:09;;;;;;;5.65;1.30;;;18.80;99.90;;;;;;5073666;28;20082;-47
2023/06/30 07:27:37;;;;;;;7.40;1.45;;;18.70;99.90;;;;;;5073119;28;20048;-50
2023/06/30 07:30:04;;;;;;;7.00;1.30;;;18.80;99.90;;;;;;5072047;28;20089;-46
2023/06/30 07:32:32;;;;;;;5.53;1.27;;;20.10;99.90;;;;;;5074081;28;20044;-49
2023/06/30 07:34:58;;;;;;;6.57;1.00;;;22.00;99.90;;;;;;5073741;28;20036;-49
2023/06/30 07:37:23;;;;;;;8.55;1.10;;;23.00;99.90;;;;;;5072962;28;20055;-49
2023/06/30 07:39:49;;;;;;;6.40;1.00;;;24.00;99.90;;;;;;5073771;28;20036;-47
2023/06/30 07:42:15;;;;;;;7.25;1.20;;;24.10;99.90;;;;;;5074595;28;21043;-51
2023/06/30 07:44:41;;;;;;;9.95;4.03;;;24.00;99.90;;;;;;5073382;28;20032;-47
2023/06/30 07:47:06;;;;;;;6.90;1.30;;;23.30;99.90;;;;;;5073522;28;20042;-47
2023/06/30 07:49:32;;;;;;;8.15;1.27;;;22.40;99.90;;;;;;5072399;28;20499;-51
2023/06/30 07:51:58;;;;;;;4.20;1.00;;;21.80;99.90;;;;;;5073437;28;20036;-50
2023/06/30 07:54:23;;;;;;;5.07;1.00;;;21.80;99.90;;;;;;5054351;28;20040;-48
2023/06/30 07:56:50;;;;;;;6.90;1.10;;;22.80;99.90;;;;;;5072308;28;20450;-49
2023/06/30 07:59:16;;;;;;;5.82;1.08;;;23.80;99.90;;;;;;5072043;28;20039;-48
2023/06/30 08:01:42;;;;;;;3.60;1.00;;;24.70;99.90;;;;;;5073587;28;20121;-52
2023/06/30 08:04:08;;;;;;;6.68;1.15;;;25.00;99.90;;;;;;5052903;28;20044;-53
2023/06/30 08:06:33;;;;;;;4.30;0.80;;;25.40;99.90;;;;;;5072109;28;20248;-51
2023/06/30 08:08:59;;;;;;;5.70;0.95;;;25.80;99.90;;;;;;5072285;28;20063;-52
2023/06/30 08:11:27;;;;;;;6.40;1.20;;;25.90;99.90;;;;;;5073219;28;20509;-51
2023/06/30 08:13:53;;;;;;;3.50;0.80;;;25.90;99.90;;;;;;5071933;28;20123;-51
2023/06/30 08:16:19;;;;;;;7.35;1.35;;;26.60;99.90;;;;;;5071540;28;20580;-53
2023/06/30 08:18:45;;;;;;;4.25;0.93;;;26.70;99.90;;;;;;5072775;28;20401;-48
2023/06/30 08:21:10;;;;;;;6.05;1.17;;;26.90;99.90;;;;;;5071827;28;20052;-49
2023/06/30 08:23:36;;;;;;;5.70;1.00;;;26.80;99.90;;;;;;5071246;28;20136;-51
2023/06/30 08:26:02;;;;;;;6.40;1.45;;;26.30;99.90;;;;;;5053100;28;20657;-52
2023/06/30 08:28:28;;;;;;;5.10;1.00;;;26.20;99.90;;;;;;5072698;28;20040;-49
2023/06/30 08:30:54;;;;;;;4.95;0.90;;;26.50;99.90;;;;;;5072343;28;20104;-50
2023/06/30 08:33:26;;;;;;;4.22;1.25;;;26.50;99.90;;;;;;5071263;28;21418;-50
2023/06/30 08:35:51;;;;;;;4.78;1.08;;;26.60;99.90;;;;;;5071397;28;20050;-53
2023/06/30 08:38:17;;;;;;;4.70;0.90;;;26.60;99.90;;;;;;5071874;28;20044;-49
2023/06/30 08:40:43;;;;;;;6.82;1.40;;;25.80;99.90;;;;;;5073323;28;20047;-51
2023/06/30 08:43:12;;;;;;;6.80;1.38;;;24.60;99.90;;;;;;5072659;28;20203;-49
2023/06/30 08:45:44;;;;;;;4.13;0.93;;;23.60;99.90;;;;;;5054392;28;20055;-48
2023/06/30 08:48:11;;;;;;;5.00;1.02;;;22.50;99.90;;;;;;5053353;28;20450;-46
2023/06/30 08:50:38;;;;;;;5.75;1.20;;;21.90;99.90;;;;;;5072347;28;20599;-49
2023/06/30 08:53:04;;;;;;;6.88;1.20;;;22.00;99.90;;;;;;5054260;28;20071;-47
2023/06/30 08:55:30;;;;;;;7.65;1.48;;;22.60;99.90;;;;;;5072335;28;20179;-48
2023/06/30 08:57:56;;;;;;;7.43;1.75;;;23.40;99.90;;;;;;5071684;28;20040;-48
2023/06/30 09:00:26;;;;;;;4.07;1.30;;;23.80;99.90;;;;;;5072726;28;20397;-50
2023/06/30 09:02:53;;;;;;;6.32;1.20;;;24.00;99.90;;;;;;5071749;28;20028;-48
2023/06/30 09:05:26;;;;;;;3.20;0.95;;;24.30;99.90;;;;;;5053093;28;20032;-47
2023/06/30 09:07:57;;;;;;;6.75;1.20;;;24.60;99.90;;;;;;5071919;28;20097;-47
2023/06/30 09:10:28;;;;;;;6.18;1.30;;;24.70;99.90;;;;;;5071596;28;20327;-46
2023/06/30 09:12:54;;;;;;;5.40;1.20;;;24.80;99.90;;;;;;5072107;28;20048;-52
2023/06/30 09:15:21;;;;;;;4.55;1.35;;;25.10;99.90;;;;;;5071420;28;20036;-49
2023/06/30 09:17:47;;;;;;;4.30;1.30;;;24.70;99.90;;;;;;5070749;28;20036;-52
2023/06/30 09:20:13;;;;;;;6.30;1.10;;;24.70;99.90;;;;;;5072220;28;20075;-48
2023/06/30 09:22:43;;;;;;;6.80;1.40;;;24.20;99.90;;;;;;5053301;28;20036;-47
2023/06/30 09:25:27;;;;;;;5.72;1.10;;;23.70;99.90;;;;;;5071003;28;20056;-48
2023/06/30 09:27:53;;;;;;;4.32;1.00;;;23.70;99.90;;;;;;5070646;28;20644;-49
2023/06/30 09:30:36;;;;;;;4.18;1.10;;;23.60;99.90;;;;;;5071856;28;20570;-50
2023/06/30 09:33:02;;;;;;;3.60;1.08;;;23.60;99.90;;;;;;5070269;28;20719;-50
2023/06/30 09:35:39;;;;;;;3.90;0.95;;;23.30;99.90;;;;;;5053371;28;20047;-48
2023/06/30 09:38:12;;;;;;;8.00;1.48;;;23.20;99.90;;;;;;5052500;28;20522;-48
2023/06/30 09:40:41;;;;;;;5.45;1.15;;;23.40;99.90;;;;;;5053864;28;20048;-49
2023/06/30 09:43:07;;;;;;;5.20;1.17;;;22.90;99.90;;;;;;5071852;28;20553;-48
2023/06/30 09:45:34;;;;;;;5.28;1.15;;;22.50;99.90;;;;;;5070997;28;20052;-48
2023/06/30 09:48:00;;;;;;;6.95;1.10;;;22.30;99.90;;;;;;5070166;28;20052;-48
2023/06/30 09:50:35;;;;;;;6.57;1.30;;;22.30;99.90;;;;;;5071431;28;20036;-46
2023/06/30 09:53:01;;;;;;;6.43;1.50;;;22.30;99.90;;;;;;5053793;28;20068;-46
2023/06/30 09:55:27;;;;;;;7.80;1.23;;;22.30;99.90;;;;;;5075131;28;20496;-49
2023/06/30 09:57:55;;;;;;;8.90;1.30;;;21.90;99.90;;;;;;5073924;28;20065;-49
2023/06/30 10:00:21;;;;;;;8.07;1.33;;;21.60;99.90;;;;;;5074876;28;20096;-46
2023/06/30 10:03:01;;;;;;;6.72;1.42;;;21.50;99.90;;;;;;5074753;28;20438;-49
2023/06/30 10:05:27;;;;;;;5.30;1.35;;;21.80;99.90;;;;;;5075211;28;20447;-46
2023/06/30 10:07:53;;;;;;;7.80;1.45;;;22.20;99.90;;;;;;5075113;28;20039;-47
2023/06/30 10:10:19;;;;;;;5.93;1.55;;;22.60;99.90;;;;;;5075564;28;20043;-49
2023/06/30 10:12:49;;;;;;;7.80;1.60;;;22.80;99.90;;;;;;5077408;28;20125;-47
2023/06/30 10:15:15;;;;;;;5.90;1.10;;;22.80;99.90;;;;;;5075429;28;20059;-49
2023/06/30 10:17:43;;;;;;;6.47;1.38;;;22.70;99.90;;;;;;5074999;28;20057;-48
2023/06/30 10:20:09;;;;;;;3.58;1.02;;;22.80;99.90;;;;;;5074450;28;20039;-51
2023/06/30 10:22:37;;;;;;;4.05;1.05;;;23.00;99.90;;;;;;5074902;28;20444;-47
2023/06/30 10:25:06;;;;;;;4.93;1.05;;;23.30;99.90;;;;;;5074188;28;20196;-47
2023/06/30 10:27:34;;;;;;;4.40;1.10;;;23.30;99.90;;;;;;5074553;28;20115;-50
2023/06/30 10:30:01;;;;;;;3.58;1.05;;;22.40;99.90;;;;;;5075241;28;20623;-46
2023/06/30 10:32:28;;;;;;;4.97;1.38;;;22.60;99.90;;;;;;5055789;28;20058;-46
2023/06/30 10:34:54;;;;;;;9.48;1.58;;;22.80;99.90;;;;;;5072721;28;20115;-45
2023/06/30 10:37:20;;;;;;;5.47;1.50;;;22.60;99.90;;;;;;5074378;28;20051;-45
2023/06/30 10:39:47;;;;;;;5.45;1.00;;;22.40;99.90;;;;;;5074391;28;20470;-49
2023/06/30 10:42:13;;;;;;;7.13;1.48;;;22.70;99.90;;;;;;5074676;28;20047;-49
2023/06/30 10:44:43;;;;;;;10.02;1.73;;;22.80;99.90;;;;;;5073814;28;20067;-47
2023/06/30 10:47:10;;;;;;;6.20;1.40;;;22.80;99.90;;;;;;5073375;28;20044;-47
2023/06/30 10:49:41;;;;;;;4.57;1.30;;;22.70;99.90;;;;;;5073377;28;20948;-46
2023/06/30 10:52:26;;;;;;;5.00;1.20;;;22.00;99.90;;;;;;5054874;28;20757;-48
2023/06/30 10:54:52;;;;;;;6.07;1.17;;;22.70;99.90;;;;;;5074055;28;20055;-51
2023/06/30 10:57:23;;;;;;;5.05;1.10;;;21.70;99.90;;;;;;5038357;28;20052;-46
2023/06/30 11:00:05;;;;;;;4.65;1.10;;;21.40;99.90;;;;;;5073351;28;20984;-49
2023/06/30 11:02:32;;;;;;;4.07;1.20;;;21.30;99.90;;;;;;5073124;28;20080;-45
2023/06/30 11:05:20;;;;;;;6.43;1.60;;;21.40;99.90;;;;;;5073716;28;20400;-48
2023/06/30 11:07:48;;;;;;;4.68;1.00;;;21.80;99.90;;;;;;5073892;28;20333;-51
2023/06/30 11:10:26;;;;;;;23.90;4.78;;;22.20;99.90;;;;;;5074329;28;20044;-51
2023/06/30 11:13:03;;;;;;;4.45;1.20;;;22.10;99.90;;;;;;5073667;28;20071;-46
2023/06/30 11:15:43;;;;;;;7.93;1.60;;;21.80;99.90;;;;;;5073191;28;20313;-52
2023/06/30 11:18:13;;;;;;;5.25;1.40;;;22.80;99.90;;;;;;5073599;28;20074;-46
2023/06/30 11:21:00;;;;;;;6.38;1.52;;;21.50;99.90;;;;;;5073117;28;20425;-46
2023/06/30 11:23:28;;;;;;;5.30;1.25;;;21.30;99.90;;;;;;5073310;28;20044;-51
2023/06/30 11:25:58;;;;;;;5.18;1.33;;;21.30;99.90;;;;;;5073146;28;20417;-46
2023/06/30 11:28:25;;;;;;;4.90;1.48;;;21.80;99.90;;;;;;5072534;28;20372;-48
2023/06/30 11:30:51;;;;;;;6.70;1.35;;;22.30;99.90;;;;;;5073092;28;20044;-46
2023/06/30 11:33:18;;;;;;;6.45;1.42;;;22.50;99.90;;;;;;5054479;28;20319;-51
2023/06/30 11:35:48;;;;;;;4.47;1.35;;;22.80;99.90;;;;;;5074858;28;20392;-47
2023/06/30 11:38:15;;;;;;;5.15;1.40;;;22.90;99.90;;;;;;5073490;28;20036;-47
2023/06/30 11:40:48;;;;;;;4.65;1.58;;;23.30;99.90;;;;;;5073301;28;20039;-48
2023/06/30 11:43:14;;;;;;;5.72;1.35;;;23.50;99.90;;;;;;5056468;28;20044;-48
2023/06/30 11:45:40;;;;;;;4.63;1.17;;;23.60;99.90;;;;;;5073221;28;20074;-49
2023/06/30 11:48:06;;;;;;;4.18;1.20;;;23.50;99.90;;;;;;5053860;28;20104;-50
2023/06/30 11:50:33;;;;;;;4.70;1.33;;;23.70;99.90;;;;;;5073949;28;20048;-48
2023/06/30 11:53:01;;;;;;;5.03;1.35;;;23.70;99.90;;;;;;5072888;28;20150;-47
2023/06/30 11:55:28;;;;;;;5.47;1.65;;;23.70;99.90;;;;;;5072986;28;20071;-47
2023/06/30 11:57:54;;;;;;;4.60;1.67;;;23.50;99.90;;;;;;5072111;28;20562;-46
2023/06/30 12:00:22;;;;;;;5.47;1.40;;;23.10;99.90;;;;;;5072597;28;20051;-47
2023/06/30 12:02:50;;;;;;;4.07;1.70;;;22.60;99.90;;;;;;5072436;28;20066;-45
2023/06/30 12:05:23;;;;;;;5.05;1.55;;;22.30;99.90;;;;;;5073111;28;20059;-46
2023/06/30 12:07:50;;;;;;;3.70;1.33;;;22.80;99.90;;;;;;5073030;28;20047;-46
2023/06/30 12:10:16;;;;;;;8.52;1.70;;;22.80;99.90;;;;;;5073047;28;20189;-46
2023/06/30 12:12:42;;;;;;;5.10;1.42;;;23.70;99.90;;;;;;5072666;28;20081;-48
2023/06/30 12:15:11;;;;;;;5.55;1.35;;;23.50;99.90;;;;;;5073043;28;20047;-46
2023/06/30 12:17:39;;;;;;;4.60;1.30;;;24.10;99.90;;;;;;5072586;28;20804;-48
2023/06/30 12:20:07;;;;;;;4.05;1.08;;;24.70;99.90;;;;;;5071584;28;20500;-49
2023/06/30 12:22:36;;;;;;;5.70;1.20;;;24.10;99.90;;;;;;5072151;28;20462;-46
2023/06/30 12:25:03;;;;;;;3.08;1.25;;;23.60;99.90;;;;;;5071526;28;20036;-48
2023/06/30 12:27:31;;;;;;;3.60;1.25;;;23.30;99.90;;;;;;5053620;28;20044;-46
2023/06/30 12:29:56;;;;;;;6.38;1.70;;;23.30;99.90;;;;;;5071533;28;20048;-46
2023/06/30 12:32:30;;;;;;;4.53;1.67;;;23.50;99.90;;;;;;5055189;28;20040;-47
2023/06/30 12:35:03;;;;;;;5.20;1.20;;;23.30;99.90;;;;;;5071051;28;21947;-46
2023/06/30 12:37:30;;;;;;;7.07;1.50;;;22.80;99.90;;;;;;5071572;28;20211;-47
2023/06/30 12:39:58;;;;;;;14.13;2.10;;;22.60;99.90;;;;;;5072439;28;20055;-45
2023/06/30 12:42:28;;;;;;;5.55;1.67;;;22.50;99.90;;;;;;5072838;28;20229;-48